Alexander 3 — SW6137 — position and weather

sailwx.info

Track history (hours):
 
Tides and Currents Weather Stations Pressure Air Temp Water Temp Dewpoint Dewpoint Depression Visibility Wind Speed Wind Dir Waves Ship Positions

Alexander 3

Last reported at 2016-Jul-26 04:34 UTC. Time now 2016-Jul-26 06:28 UTC.
Position N 37°56' E 023°37'.

Length 38 m; draft 5.6 m.

Type: Tug. MMSI: 240733000.

Date/timePositionNaut miles runAvg speedWind from/ knotsBaromVisibWave heightAir tempDewpointWater temp
2016-Jul-26 04:34N 37°56' E 023°37'0 0.0
2016-Jul-26 03:34N 37°56' E 023°37'0 0.0
2016-Jul-26 02:34N 37°56' E 023°37'  
2016-Jul-23 11:33N 37°56' E 023°37'2 1.5
2016-Jul-23 10:34N 37°57' E 023°37'0 0.0
2016-Jul-23 09:33N 37°57' E 023°37'0 0.0
2016-Jul-23 08:34N 37°57' E 023°37'0 0.0
2016-Jul-23 07:33N 37°57' E 023°37'1 0.8
2016-Jul-23 06:33N 37°57' E 023°36'1 0.5
2016-Jul-23 04:34N 37°56' E 023°36'1 1.0
2016-Jul-23 03:33N 37°56' E 023°37'0 0.0
2016-Jul-22 16:34N 37°56' E 023°37'2 2.4
2016-Jul-22 15:33N 37°57' E 023°35'1 0.7
2016-Jul-22 14:33N 37°57' E 023°34'0 0.0
2016-Jul-22 13:33N 37°57' E 023°34'0 0.0
2016-Jul-22 12:33N 37°57' E 023°34'0 0.3
2016-Jul-22 11:33N 37°57' E 023°34'3 2.8
2016-Jul-22 10:33N 37°56' E 023°37'0 0.0
2016-Jul-22 09:33N 37°56' E 023°37'0 0.0
2016-Jul-22 08:33N 37°56' E 023°37'0 0.0
2016-Jul-22 07:33N 37°56' E 023°37'2 0.9
2016-Jul-22 05:33N 37°58' E 023°36'2 1.8
2016-Jul-22 04:33N 37°56' E 023°37'0 0.0
2016-Jul-22 03:34N 37°56' E 023°37'0 0.0
2016-Jul-21 17:11N 37°56' E 023°37'6 8.9
2016-Jul-21 16:33N 37°53' E 023°31'8 8.0
2016-Jul-21 15:33N 37°58' E 023°23'1 1.2
2016-Jul-21 14:33N 37°58' E 023°24'0 0.0
2016-Jul-21 13:33N 37°58' E 023°24'0 0.0
2016-Jul-21 12:34N 37°58' E 023°24'0 0.0
2016-Jul-21 11:33N 37°58' E 023°24'0 0.0
2016-Jul-21 10:33N 37°58' E 023°24'0 0.0
2016-Jul-21 09:33N 37°58' E 023°24'1 0.6
2016-Jul-21 08:33N 37°58' E 023°24'0 0.4
2016-Jul-21 07:34N 37°57' E 023°24'1 0.7
2016-Jul-21 06:34N 37°58' E 023°24'0 0.4
2016-Jul-21 05:34N 37°58' E 023°24'0 0.0
2016-Jul-21 04:34N 37°58' E 023°24'0 0.0
2016-Jul-21 03:33N 37°58' E 023°24'0 0.0
2016-Jul-21 02:34N 37°58' E 023°24'0 0.0
2016-Jul-21 01:34N 37°58' E 023°24'0 0.0
2016-Jul-21 00:33N 37°58' E 023°24'0 0.0
2016-Jul-20 23:34N 37°58' E 023°24'0 0.0
2016-Jul-20 22:33N 37°58' E 023°24'0 0.0
2016-Jul-20 21:33N 37°58' E 023°24'0 0.0
2016-Jul-20 20:33N 37°58' E 023°24'0 0.0
2016-Jul-20 19:34N 37°58' E 023°24'0 0.0
2016-Jul-20 18:33N 37°58' E 023°24'0 0.0
2016-Jul-20 17:33N 37°58' E 023°24'0 0.0
2016-Jul-20 16:33N 37°58' E 023°24'0 0.0
2016-Jul-20 15:33N 37°58' E 023°24'0 0.0
2016-Jul-20 14:33N 37°58' E 023°24'0 0.0
2016-Jul-20 13:33N 37°58' E 023°24'1 1.0
2016-Jul-20 12:33N 37°58' E 023°23'1 1.0
2016-Jul-20 11:33N 37°58' E 023°24'1 0.8
2016-Jul-20 10:33N 37°58' E 023°25'6 6.1
2016-Jul-20 09:33N 37°59' E 023°33'3 3.2
2016-Jul-20 08:34N 37°57' E 023°37'0 0.0
2016-Jul-20 07:33N 37°57' E 023°37'0 0.0
2016-Jul-20 06:34N 37°57' E 023°37'0 0.0
2016-Jul-20 05:33N 37°57' E 023°37'0 0.0
2016-Jul-20 04:33N 37°57' E 023°37'1 1.1
2016-Jul-20 03:33N 37°57' E 023°35'2 0.1
2016-Jul-19 11:27N 37°56' E 023°37'2 1.7
2016-Jul-19 10:34N 37°57' E 023°37'0 0.0
2016-Jul-19 09:33N 37°57' E 023°37'1 1.3
2016-Jul-19 08:34N 37°57' E 023°35'2 1.9
2016-Jul-19 07:33N 37°56' E 023°37'0 0.0
2016-Jul-19 04:33N 37°56' E 023°37'0 0.0
2016-Jul-19 03:33N 37°56' E 023°37'0 0.0
2016-Jul-19 02:33N 37°56' E 023°37'1 0.1
2016-Jul-18 18:33N 37°57' E 023°36'1 0.9
2016-Jul-18 17:33N 37°58' E 023°36'2 1.8
2016-Jul-18 16:33N 37°56' E 023°36'1 1.2
2016-Jul-18 15:33N 37°56' E 023°37'0 0.0
2016-Jul-18 14:33N 37°56' E 023°37'0 0.0
2016-Jul-18 13:34N 37°56' E 023°37'0 0.0
2016-Jul-18 12:33N 37°56' E 023°37'0 0.0
2016-Jul-18 11:33N 37°56' E 023°37'0 0.0
2016-Jul-18 10:33N 37°56' E 023°37'0 0.0
2016-Jul-18 09:33N 37°56' E 023°37'0 0.0
2016-Jul-18 08:34N 37°56' E 023°37'0 0.0
2016-Jul-18 07:33N 37°56' E 023°37'0 0.0
2016-Jul-18 06:33N 37°56' E 023°37'0 0.1
2016-Jul-18 05:33N 37°56' E 023°37'0 0.1
2016-Jul-18 04:33N 37°56' E 023°37'0 0.1
2016-Jul-18 03:33N 37°56' E 023°37'0 0.0
2016-Jul-17 10:14N 37°56' E 023°37'2 2.9
2016-Jul-17 09:33N 37°57' E 023°35'0 0.1
2016-Jul-17 08:33N 37°57' E 023°35'1 1.1
2016-Jul-17 07:33N 37°57' E 023°37'0 0.0
2016-Jul-17 06:33N 37°57' E 023°37'0 0.0
2016-Jul-17 04:33N 37°57' E 023°37'0 0.0
2016-Jul-17 03:33N 37°57' E 023°37'0 0.0
2016-Jul-17 02:33N 37°57' E 023°37'0 0.0
2016-Jul-17 01:33N 37°57' E 023°37'0 0.0
2016-Jul-17 00:33N 37°57' E 023°37'0 0.0
2016-Jul-16 23:33N 37°57' E 023°37'3 3.3
2016-Jul-16 22:33N 37°59' E 023°33'2 2.3
2016-Jul-16 21:34N 38°01' E 023°31'1 1.2
2016-Jul-16 20:33N 38°02' E 023°31'0 0.0
2016-Jul-16 19:33N 38°02' E 023°31'1 0.6
2016-Jul-16 18:33N 38°02' E 023°31'6 5.9
2016-Jul-16 17:33N 37°57' E 023°36'1 0.8
2016-Jul-16 16:33N 37°57' E 023°37'0 0.0
2016-Jul-16 15:33N 37°57' E 023°37'0 0.0
2016-Jul-16 14:33N 37°57' E 023°37'0 0.0
2016-Jul-16 13:33N 37°57' E 023°37'0 0.0
2016-Jul-16 12:33N 37°57' E 023°37'0 0.0
2016-Jul-16 11:33N 37°57' E 023°37'0 0.0
2016-Jul-16 10:33N 37°57' E 023°37'0 0.0
2016-Jul-16 09:33N 37°57' E 023°37'6 5.6
2016-Jul-16 08:33N 37°53' E 023°32'1 1.4
2016-Jul-16 07:33N 37°54' E 023°33'3 3.3
2016-Jul-16 06:33N 37°57' E 023°36'  
Track history (hours):
 
Tides and Currents Weather Stations Pressure Air Temp Water Temp Dewpoint Dewpoint Depression Visibility Wind Speed Wind Dir Waves Ship Positions

Alexander 3

Last reported at 2016-Jul-26 04:34 UTC. Time now 2016-Jul-26 06:28 UTC.
Position N 37°56' E 023°37'.

Length 38 m; draft 5.6 m.

Type: Tug. MMSI: 240733000.

Date/timePositionNaut miles runAvg speedWind from/ knotsBaromVisibWave heightAir tempDewpointWater temp
2016-Jul-26 04:34N 37°56' E 023°37'0 0.0
2016-Jul-26 03:34N 37°56' E 023°37'0 0.0
2016-Jul-26 02:34N 37°56' E 023°37'  
2016-Jul-23 11:33N 37°56' E 023°37'2 1.5
2016-Jul-23 10:34N 37°57' E 023°37'0 0.0
2016-Jul-23 09:33N 37°57' E 023°37'0 0.0
2016-Jul-23 08:34N 37°57' E 023°37'0 0.0
2016-Jul-23 07:33N 37°57' E 023°37'1 0.8
2016-Jul-23 06:33N 37°57' E 023°36'1 0.5
2016-Jul-23 04:34N 37°56' E 023°36'1 1.0
2016-Jul-23 03:33N 37°56' E 023°37'0 0.0
2016-Jul-22 16:34N 37°56' E 023°37'2 2.4
2016-Jul-22 15:33N 37°57' E 023°35'1 0.7
2016-Jul-22 14:33N 37°57' E 023°34'0 0.0
2016-Jul-22 13:33N 37°57' E 023°34'0 0.0
2016-Jul-22 12:33N 37°57' E 023°34'0 0.3
2016-Jul-22 11:33N 37°57' E 023°34'3 2.8
2016-Jul-22 10:33N 37°56' E 023°37'0 0.0
2016-Jul-22 09:33N 37°56' E 023°37'0 0.0
2016-Jul-22 08:33N 37°56' E 023°37'0 0.0
2016-Jul-22 07:33N 37°56' E 023°37'2 0.9
2016-Jul-22 05:33N 37°58' E 023°36'2 1.8
2016-Jul-22 04:33N 37°56' E 023°37'0 0.0
2016-Jul-22 03:34N 37°56' E 023°37'0 0.0
2016-Jul-21 17:11N 37°56' E 023°37'6 8.9
2016-Jul-21 16:33N 37°53' E 023°31'8 8.0
2016-Jul-21 15:33N 37°58' E 023°23'1 1.2
2016-Jul-21 14:33N 37°58' E 023°24'0 0.0
2016-Jul-21 13:33N 37°58' E 023°24'0 0.0
2016-Jul-21 12:34N 37°58' E 023°24'0 0.0
2016-Jul-21 11:33N 37°58' E 023°24'0 0.0
2016-Jul-21 10:33N 37°58' E 023°24'0 0.0
2016-Jul-21 09:33N 37°58' E 023°24'1 0.6
2016-Jul-21 08:33N 37°58' E 023°24'0 0.4
2016-Jul-21 07:34N 37°57' E 023°24'1 0.7
2016-Jul-21 06:34N 37°58' E 023°24'0 0.4
2016-Jul-21 05:34N 37°58' E 023°24'0 0.0
2016-Jul-21 04:34N 37°58' E 023°24'0 0.0
2016-Jul-21 03:33N 37°58' E 023°24'0 0.0
2016-Jul-21 02:34N 37°58' E 023°24'0 0.0
2016-Jul-21 01:34N 37°58' E 023°24'0 0.0
2016-Jul-21 00:33N 37°58' E 023°24'0 0.0
2016-Jul-20 23:34N 37°58' E 023°24'0 0.0
2016-Jul-20 22:33N 37°58' E 023°24'0 0.0
2016-Jul-20 21:33N 37°58' E 023°24'0 0.0
2016-Jul-20 20:33N 37°58' E 023°24'0 0.0
2016-Jul-20 19:34N 37°58' E 023°24'0 0.0
2016-Jul-20 18:33N 37°58' E 023°24'0 0.0
2016-Jul-20 17:33N 37°58' E 023°24'0 0.0
2016-Jul-20 16:33N 37°58' E 023°24'0 0.0
2016-Jul-20 15:33N 37°58' E 023°24'0 0.0
2016-Jul-20 14:33N 37°58' E 023°24'0 0.0
2016-Jul-20 13:33N 37°58' E 023°24'1 1.0
2016-Jul-20 12:33N 37°58' E 023°23'1 1.0
2016-Jul-20 11:33N 37°58' E 023°24'1 0.8
2016-Jul-20 10:33N 37°58' E 023°25'6 6.1
2016-Jul-20 09:33N 37°59' E 023°33'3 3.2
2016-Jul-20 08:34N 37°57' E 023°37'0 0.0
2016-Jul-20 07:33N 37°57' E 023°37'0 0.0
2016-Jul-20 06:34N 37°57' E 023°37'0 0.0
2016-Jul-20 05:33N 37°57' E 023°37'0 0.0
2016-Jul-20 04:33N 37°57' E 023°37'1 1.1
2016-Jul-20 03:33N 37°57' E 023°35'2 0.1
2016-Jul-19 11:27N 37°56' E 023°37'2 1.7
2016-Jul-19 10:34N 37°57' E 023°37'0 0.0
2016-Jul-19 09:33N 37°57' E 023°37'1 1.3
2016-Jul-19 08:34N 37°57' E 023°35'2 1.9
2016-Jul-19 07:33N 37°56' E 023°37'0 0.0
2016-Jul-19 04:33N 37°56' E 023°37'0 0.0
2016-Jul-19 03:33N 37°56' E 023°37'0 0.0
2016-Jul-19 02:33N 37°56' E 023°37'1 0.1
2016-Jul-18 18:33N 37°57' E 023°36'1 0.9
2016-Jul-18 17:33N 37°58' E 023°36'2 1.8
2016-Jul-18 16:33N 37°56' E 023°36'1 1.2
2016-Jul-18 15:33N 37°56' E 023°37'0 0.0
2016-Jul-18 14:33N 37°56' E 023°37'0 0.0
2016-Jul-18 13:34N 37°56' E 023°37'0 0.0
2016-Jul-18 12:33N 37°56' E 023°37'0 0.0
2016-Jul-18 11:33N 37°56' E 023°37'0 0.0
2016-Jul-18 10:33N 37°56' E 023°37'0 0.0
2016-Jul-18 09:33N 37°56' E 023°37'0 0.0
2016-Jul-18 08:34N 37°56' E 023°37'0 0.0
2016-Jul-18 07:33N 37°56' E 023°37'0 0.0
2016-Jul-18 06:33N 37°56' E 023°37'0 0.1
2016-Jul-18 05:33N 37°56' E 023°37'0 0.1
2016-Jul-18 04:33N 37°56' E 023°37'0 0.1
2016-Jul-18 03:33N 37°56' E 023°37'0 0.0
2016-Jul-17 10:14N 37°56' E 023°37'2 2.9
2016-Jul-17 09:33N 37°57' E 023°35'0 0.1
2016-Jul-17 08:33N 37°57' E 023°35'1 1.1
2016-Jul-17 07:33N 37°57' E 023°37'0 0.0
2016-Jul-17 06:33N 37°57' E 023°37'0 0.0
2016-Jul-17 04:33N 37°57' E 023°37'0 0.0
2016-Jul-17 03:33N 37°57' E 023°37'0 0.0
2016-Jul-17 02:33N 37°57' E 023°37'0 0.0
2016-Jul-17 01:33N 37°57' E 023°37'0 0.0
2016-Jul-17 00:33N 37°57' E 023°37'0 0.0
2016-Jul-16 23:33N 37°57' E 023°37'3 3.3
2016-Jul-16 22:33N 37°59' E 023°33'2 2.3
2016-Jul-16 21:34N 38°01' E 023°31'1 1.2
2016-Jul-16 20:33N 38°02' E 023°31'0 0.0
2016-Jul-16 19:33N 38°02' E 023°31'1 0.6
2016-Jul-16 18:33N 38°02' E 023°31'6 5.9
2016-Jul-16 17:33N 37°57' E 023°36'1 0.8
2016-Jul-16 16:33N 37°57' E 023°37'0 0.0
2016-Jul-16 15:33N 37°57' E 023°37'0 0.0
2016-Jul-16 14:33N 37°57' E 023°37'0 0.0
2016-Jul-16 13:33N 37°57' E 023°37'0 0.0
2016-Jul-16 12:33N 37°57' E 023°37'0 0.0
2016-Jul-16 11:33N 37°57' E 023°37'0 0.0
2016-Jul-16 10:33N 37°57' E 023°37'0 0.0
2016-Jul-16 09:33N 37°57' E 023°37'6 5.6
2016-Jul-16 08:33N 37°53' E 023°32'1 1.4
2016-Jul-16 07:33N 37°54' E 023°33'3 3.3
2016-Jul-16 06:33N 37°57' E 023°36'  

Dump ship's entire track history